Time,TemperatureF,DewpointF,PressureIn,WindDirection,WindDirectionDegrees,WindSpeedMPH,WindSpeedGustMPH,Humidity,HourlyPrecipIn,Conditions,Clouds,dailyrainin,SoftwareType,DateUTC
2013-11-25 00:12:00,25.9,19.0,25.78,NNE,19,7.0,9.0,74,0.00,,,0.00,weatherlink.com 1.10,2013-11-25 07:12:00,
2013-11-25 00:27:00,25.7,18.0,25.78,NNE,15,3.0,5.0,74,0.00,,,0.00,weatherlink.com 1.10,2013-11-25 07:27:00,
2013-11-25 00:42:00,25.6,19.0,25.78,North,354,6.0,7.0,76,0.00,,,0.00,weatherlink.com 1.10,2013-11-25 07:42:00,
2013-11-25 00:57:00,25.8,19.0,25.79,NE,36,4.0,7.0,76,0.00,,,0.00,weatherlink.com 1.10,2013-11-25 07:57:00,
2013-11-25 01:12:00,25.6,19.0,25.79,NNE,16,6.0,7.0,77,0.00,,,0.00,weatherlink.com 1.10,2013-11-25 08:12:00,
2013-11-25 01:27:00,25.6,19.0,25.79,NE,43,4.0,7.0,76,0.00,,,0.00,weatherlink.com 1.10,2013-11-25 08:27:00,
2013-11-25 01:42:00,26.1,20.0,25.80,NE,36,4.0,8.0,78,0.00,,,0.00,weatherlink.com 1.10,2013-11-25 08:42:00,
2013-11-25 01:57:00,27.7,21.0,25.81,East,87,6.0,7.0,77,0.00,,,0.00,weatherlink.com 1.10,2013-11-25 08:57:00,
2013-11-25 02:12:00,29.3,23.0,25.81,North,1,6.0,10.0,76,0.00,,,0.00,weatherlink.com 1.10,2013-11-25 09:12:00,
2013-11-25 02:27:00,30.3,23.0,25.81,North,360,7.0,10.0,74,0.00,,,0.00,weatherlink.com 1.10,2013-11-25 09:27:00,
2013-11-25 02:42:00,30.4,23.0,25.81,NNW,327,6.0,10.0,73,0.00,,,0.00,weatherlink.com 1.10,2013-11-25 09:42:00,
2013-11-25 02:57:00,30.0,22.0,25.82,North,6,4.0,9.0,73,0.00,,,0.00,weatherlink.com 1.10,2013-11-25 09:57:00,
2013-11-25 03:12:00,30.1,23.0,25.82,North,5,6.0,8.0,74,0.00,,,0.00,weatherlink.com 1.10,2013-11-25 10:12:00,
2013-11-25 03:27:00,30.3,23.0,25.82,NNE,18,3.0,9.0,74,0.00,,,0.00,weatherlink.com 1.10,2013-11-25 10:27:00,
2013-11-25 03:42:00,30.8,23.0,25.83,NNE,23,4.0,8.0,74,0.00,,,0.00,weatherlink.com 1.10,2013-11-25 10:42:00,
2013-11-25 03:57:00,31.5,24.0,25.83,NNW,347,5.0,11.0,74,0.00,,,0.00,weatherlink.com 1.10,2013-11-25 10:57:00,
2013-11-25 04:12:00,31.9,24.0,25.84,NE,51,10.0,11.0,73,0.00,,,0.00,weatherlink.com 1.10,2013-11-25 11:12:00,
2013-11-25 04:27:00,32.0,24.0,25.84,North,11,4.0,9.0,73,0.00,,,0.00,weatherlink.com 1.10,2013-11-25 11:27:00,
2013-11-25 04:42:00,32.0,24.0,25.84,NNW,344,3.0,6.0,73,0.00,,,0.00,weatherlink.com 1.10,2013-11-25 11:42:00,
2013-11-25 04:57:00,32.1,25.0,25.85,NNE,29,3.0,6.0,74,0.00,,,0.00,weatherlink.com 1.10,2013-11-25 11:57:00,
2013-11-25 05:12:00,32.3,25.0,25.85,North,11,7.0,8.0,73,0.00,,,0.00,weatherlink.com 1.10,2013-11-25 12:12:00,
2013-11-25 05:27:00,32.6,24.0,25.86,NNE,33,5.0,8.0,71,0.00,,,0.00,weatherlink.com 1.10,2013-11-25 12:27:00,
2013-11-25 05:42:00,32.5,24.0,25.86,NE,38,4.0,7.0,71,0.00,,,0.00,weatherlink.com 1.10,2013-11-25 12:42:00,
2013-11-25 05:57:00,32.2,24.0,25.87,NNE,26,2.0,7.0,73,0.00,,,0.00,weatherlink.com 1.10,2013-11-25 12:57:00,
2013-11-25 06:12:00,32.0,24.0,25.87,North,349,4.0,6.0,73,0.00,,,0.00,weatherlink.com 1.10,2013-11-25 13:12:00,
2013-11-25 06:28:00,31.5,24.0,25.88,NNE,15,4.0,5.0,75,0.00,,,0.00,weatherlink.com 1.10,2013-11-25 13:28:00,
2013-11-25 06:43:00,32.0,24.0,25.89,North,1,4.0,6.0,72,0.00,,,0.00,weatherlink.com 1.10,2013-11-25 13:43:00,
2013-11-25 06:58:00,32.0,24.0,25.89,NNW,347,2.0,6.0,72,0.00,,,0.00,weatherlink.com 1.10,2013-11-25 13:58:00,
2013-11-25 07:13:00,32.8,24.0,25.90,NW,325,1.0,7.0,70,0.00,,,0.00,weatherlink.com 1.10,2013-11-25 14:13:00,
2013-11-25 07:28:00,32.8,24.0,25.90,NNW,347,3.0,4.0,71,0.00,,,0.00,weatherlink.com 1.10,2013-11-25 14:28:00,
2013-11-25 07:43:00,32.6,24.0,25.91,NW,308,4.0,6.0,71,0.00,,,0.00,weatherlink.com 1.10,2013-11-25 14:43:00,
2013-11-25 07:58:00,31.8,25.0,25.92,WNW,289,2.0,4.0,75,0.00,,,0.00,weatherlink.com 1.10,2013-11-25 14:58:00,
2013-11-25 08:13:00,31.8,25.0,25.92,WNW,294,2.0,5.0,75,0.00,,,0.00,weatherlink.com 1.10,2013-11-25 15:13:00,
2013-11-25 08:28:00,31.6,25.0,25.93,WNW,285,3.0,5.0,75,0.00,,,0.00,weatherlink.com 1.10,2013-11-25 15:28:00,
2013-11-25 08:43:00,31.3,25.0,25.93,WNW,293,5.0,7.0,78,0.00,,,0.00,weatherlink.com 1.10,2013-11-25 15:43:00,
2013-11-25 08:58:00,32.7,26.0,25.93,WNW,297,5.0,9.0,76,0.00,,,0.00,weatherlink.com 1.10,2013-11-25 15:58:00,
2013-11-25 09:13:00,33.4,26.0,25.94,WNW,293,7.0,9.0,74,0.00,,,0.00,weatherlink.com 1.10,2013-11-25 16:13:00,
2013-11-25 09:28:00,35.4,28.0,25.94,WSW,238,3.0,9.0,73,0.00,,,0.00,weatherlink.com 1.10,2013-11-25 16:28:00,
2013-11-25 09:43:00,36.6,27.0,25.95,NW,304,4.0,10.0,69,0.00,,,0.00,weatherlink.com 1.10,2013-11-25 16:43:00,
2013-11-25 09:58:00,35.3,27.0,25.95,NNW,334,5.0,9.0,71,0.00,,,0.00,weatherlink.com 1.10,2013-11-25 16:58:00,
2013-11-25 10:13:00,36.6,28.0,25.95,WNW,293,7.0,8.0,70,0.00,,,0.00,weatherlink.com 1.10,2013-11-25 17:13:00,
2013-11-25 10:28:00,37.7,28.0,25.95,NW,315,5.0,7.0,68,0.00,,,0.00,weatherlink.com 1.10,2013-11-25 17:28:00,
2013-11-25 10:43:00,38.8,28.0,25.95,NW,317,6.0,7.0,66,0.00,,,0.00,weatherlink.com 1.10,2013-11-25 17:43:00,
2013-11-25 10:58:00,40.0,29.0,25.95,NNW,333,3.0,8.0,65,0.00,,,0.00,weatherlink.com 1.10,2013-11-25 17:58:00,
2013-11-25 11:13:00,40.3,28.0,25.95,NW,318,4.0,8.0,62,0.00,,,0.00,weatherlink.com 1.10,2013-11-25 18:13:00,
2013-11-25 11:28:00,41.9,28.0,25.94,East,84,2.0,6.0,59,0.00,,,0.00,weatherlink.com 1.10,2013-11-25 18:28:00,
2013-11-25 11:43:00,42.3,27.0,25.94,North,349,5.0,10.0,55,0.00,,,0.00,weatherlink.com 1.10,2013-11-25 18:43:00,
2013-11-25 11:58:00,41.6,29.0,25.95,NW,325,4.0,8.0,62,0.00,,,0.00,weatherlink.com 1.10,2013-11-25 18:58:00,
2013-11-25 12:13:00,41.5,29.0,25.94,NW,325,1.0,8.0,61,0.00,,,0.00,weatherlink.com 1.10,2013-11-25 19:13:00,
2013-11-25 12:29:00,41.3,29.0,25.94,NNW,336,2.0,8.0,63,0.00,,,0.00,weatherlink.com 1.10,2013-11-25 19:29:00,
2013-11-25 12:44:00,40.9,29.0,25.94,NNE,13,2.0,6.0,64,0.00,,,0.00,weatherlink.com 1.10,2013-11-25 19:44:00,
2013-11-25 12:59:00,41.0,29.0,25.93,NNW,338,4.0,8.0,62,0.00,,,0.00,weatherlink.com 1.10,2013-11-25 19:59:00,
2013-11-25 13:14:00,41.5,29.0,25.93,NW,322,4.0,8.0,61,0.00,,,0.00,weatherlink.com 1.10,2013-11-25 20:14:00,
2013-11-25 13:29:00,42.2,30.0,25.93,North,354,2.0,8.0,62,0.00,,,0.00,weatherlink.com 1.10,2013-11-25 20:29:00,
2013-11-25 13:44:00,42.8,29.0,25.93,North,352,6.0,8.0,59,0.00,,,0.00,weatherlink.com 1.10,2013-11-25 20:44:00,
2013-11-25 13:59:00,41.1,29.0,25.93,East,85,5.0,8.0,63,0.00,,,0.00,weatherlink.com 1.10,2013-11-25 20:59:00,
2013-11-25 14:14:00,40.3,29.0,25.93,NNE,23,4.0,8.0,64,0.00,,,0.00,weatherlink.com 1.10,2013-11-25 21:14:00,
2013-11-25 14:29:00,40.0,29.0,25.94,NNW,334,4.0,6.0,65,0.00,,,0.00,weatherlink.com 1.10,2013-11-25 21:29:00,
2013-11-25 14:44:00,39.9,29.0,25.94,NNE,20,7.0,7.0,65,0.00,,,0.00,weatherlink.com 1.10,2013-11-25 21:44:00,
2013-11-25 14:59:00,39.5,29.0,25.94,NE,46,6.0,6.0,67,0.00,,,0.00,weatherlink.com 1.10,2013-11-25 21:59:00,
2013-11-25 15:14:00,38.8,29.0,25.95,North,355,3.0,6.0,68,0.00,,,0.00,weatherlink.com 1.10,2013-11-25 22:14:00,
2013-11-25 15:29:00,37.5,29.0,25.95,NNE,18,3.0,5.0,72,0.00,,,0.00,weatherlink.com 1.10,2013-11-25 22:29:00,
2013-11-25 15:44:00,37.5,29.0,25.95,NE,50,1.0,5.0,71,0.00,,,0.00,weatherlink.com 1.10,2013-11-25 22:44:00,
2013-11-25 15:59:00,36.1,28.0,25.96,NNE,33,3.0,5.0,73,0.00,,,0.00,weatherlink.com 1.10,2013-11-25 22:59:00,
2013-11-25 16:14:00,34.1,27.0,25.96,NNE,20,0.0,2.0,76,0.00,,,0.00,weatherlink.com 1.10,2013-11-25 23:14:00,
2013-11-25 16:29:00,32.7,27.0,25.96,North,355,3.0,4.0,79,0.00,,,0.00,weatherlink.com 1.10,2013-11-25 23:29:00,
2013-11-25 16:44:00,32.2,27.0,25.96,ENE,61,2.0,4.0,80,0.00,,,0.00,weatherlink.com 1.10,2013-11-25 23:44:00,
2013-11-25 16:59:00,31.5,26.0,25.97,NNE,30,0.0,3.0,81,0.00,,,0.00,weatherlink.com 1.10,2013-11-25 23:59:00,
2013-11-25 17:14:00,29.9,25.0,25.97,NNE,27,0.0,1.0,83,0.00,,,0.00,weatherlink.com 1.10,2013-11-26 00:14:00,
2013-11-25 17:29:00,29.9,26.0,25.98,NNE,27,0.0,0.0,85,0.00,,,0.00,weatherlink.com 1.10,2013-11-26 00:29:00,
2013-11-25 17:44:00,29.5,26.0,25.98,North,349,0.0,1.0,85,0.00,,,0.00,weatherlink.com 1.10,2013-11-26 00:44:00,
2013-11-25 17:59:00,29.3,26.0,25.98,NW,319,0.0,1.0,86,0.00,,,0.00,weatherlink.com 1.10,2013-11-26 00:59:00,
2013-11-25 18:14:00,28.9,25.0,25.98,NNW,331,0.0,0.0,85,0.00,,,0.00,weatherlink.com 1.10,2013-11-26 01:14:00,
2013-11-25 18:29:00,28.9,25.0,25.98,NW,314,0.0,1.0,86,0.00,,,0.00,weatherlink.com 1.10,2013-11-26 01:29:00,
2013-11-25 18:44:00,27.1,24.0,25.98,WNW,290,1.0,3.0,86,0.00,,,0.00,weatherlink.com 1.10,2013-11-26 01:44:00,
2013-11-25 18:59:00,28.0,24.0,25.98,WNW,299,0.0,1.0,86,0.00,,,0.00,weatherlink.com 1.10,2013-11-26 01:59:00,
2013-11-25 19:14:00,27.3,24.0,25.98,NNW,337,0.0,1.0,87,0.00,,,0.00,weatherlink.com 1.10,2013-11-26 02:14:00,
2013-11-25 19:29:00,26.9,23.0,25.99,NW,311,2.0,2.0,86,0.00,,,0.00,weatherlink.com 1.10,2013-11-26 02:29:00,
2013-11-25 19:44:00,25.5,22.0,25.99,NW,325,2.0,3.0,86,0.00,,,0.00,weatherlink.com 1.10,2013-11-26 02:44:00,
2013-11-25 19:59:00,25.3,22.0,26.00,West,262,0.0,3.0,86,0.00,,,0.00,weatherlink.com 1.10,2013-11-26 02:59:00,
2013-11-25 20:14:00,24.3,21.0,26.00,WNW,290,2.0,4.0,87,0.00,,,0.00,weatherlink.com 1.10,2013-11-26 03:14:00,
2013-11-25 20:29:00,25.7,23.0,26.00,WNW,297,2.0,4.0,88,0.00,,,0.00,weatherlink.com 1.10,2013-11-26 03:29:00,
2013-11-25 20:44:00,25.1,22.0,26.00,WNW,302,3.0,4.0,88,0.00,,,0.00,weatherlink.com 1.10,2013-11-26 03:44:00,
2013-11-25 20:59:00,26.7,22.0,26.00,WNW,294,2.0,5.0,83,0.00,,,0.00,weatherlink.com 1.10,2013-11-26 03:59:00,
2013-11-25 21:14:00,24.8,21.0,26.00,WNW,285,2.0,3.0,85,0.00,,,0.00,weatherlink.com 1.10,2013-11-26 04:14:00,
2013-11-25 21:29:00,25.7,22.0,26.00,WNW,302,2.0,5.0,87,0.00,,,0.00,weatherlink.com 1.10,2013-11-26 04:29:00,
2013-11-25 21:44:00,25.7,22.0,26.00,WNW,285,3.0,4.0,85,0.00,,,0.00,weatherlink.com 1.10,2013-11-26 04:44:00,
2013-11-25 21:59:00,25.1,22.0,26.00,WNW,287,0.0,2.0,86,0.00,,,0.00,weatherlink.com 1.10,2013-11-26 04:59:00,
2013-11-25 22:14:00,25.1,21.0,26.00,WNW,287,1.0,1.0,85,0.00,,,0.00,weatherlink.com 1.10,2013-11-26 05:14:00,
2013-11-25 22:29:00,25.8,22.0,26.00,NW,314,2.0,3.0,86,0.00,,,0.00,weatherlink.com 1.10,2013-11-26 05:29:00,
2013-11-25 22:44:00,27.5,23.0,26.00,NW,321,4.0,5.0,84,0.00,,,0.00,weatherlink.com 1.10,2013-11-26 05:44:00,
2013-11-25 22:59:00,28.2,23.0,26.00,NNW,340,5.0,7.0,81,0.00,,,0.00,weatherlink.com 1.10,2013-11-26 05:59:00,
2013-11-25 23:14:00,28.0,23.0,26.00,NNW,330,4.0,8.0,82,0.00,,,0.00,weatherlink.com 1.10,2013-11-26 06:14:00,
2013-11-25 23:29:00,28.5,23.0,26.01,NNW,346,4.0,8.0,81,0.00,,,0.00,weatherlink.com 1.10,2013-11-26 06:29:00,
2013-11-25 23:44:00,28.8,23.0,26.00,NNW,328,5.0,11.0,80,0.00,,,0.00,weatherlink.com 1.10,2013-11-26 06:44:00,
2013-11-25 23:59:00,29.3,23.0,26.00,NE,36,4.0,8.0,78,0.00,,,0.00,weatherlink.com 1.10,2013-11-26 06:59:00,